sensor_id;sensor_type;location;lat;lon;timestamp;P1;durP1;ratioP1;P2;durP2;ratioP2
35558;SDS011;21661;50.794;-1.066;2023-12-20T00:02:18;2.92;;;0.70;;
35558;SDS011;21661;50.794;-1.066;2023-12-20T00:04:44;2.20;;;0.50;;
35558;SDS011;21661;50.794;-1.066;2023-12-20T00:07:09;3.08;;;0.63;;
35558;SDS011;21661;50.794;-1.066;2023-12-20T00:09:35;2.85;;;0.45;;
35558;SDS011;21661;50.794;-1.066;2023-12-20T00:12:00;1.15;;;0.50;;
35558;SDS011;21661;50.794;-1.066;2023-12-20T00:14:26;3.15;;;0.45;;
35558;SDS011;21661;50.794;-1.066;2023-12-20T00:16:52;3.13;;;0.63;;
35558;SDS011;21661;50.794;-1.066;2023-12-20T00:19:18;3.33;;;0.40;;
35558;SDS011;21661;50.794;-1.066;2023-12-20T00:21:44;1.77;;;0.40;;
35558;SDS011;21661;50.794;-1.066;2023-12-20T00:24:09;2.30;;;0.50;;
35558;SDS011;21661;50.794;-1.066;2023-12-20T00:26:35;3.63;;;0.57;;
35558;SDS011;21661;50.794;-1.066;2023-12-20T00:29:01;2.33;;;0.52;;
35558;SDS011;21661;50.794;-1.066;2023-12-20T00:31:26;1.77;;;0.57;;
35558;SDS011;21661;50.794;-1.066;2023-12-20T00:33:52;1.55;;;0.50;;
35558;SDS011;21661;50.794;-1.066;2023-12-20T00:36:17;1.77;;;0.40;;
35558;SDS011;21661;50.794;-1.066;2023-12-20T00:38:43;2.60;;;0.40;;
35558;SDS011;21661;50.794;-1.066;2023-12-20T00:41:17;2.40;;;0.50;;
35558;SDS011;21661;50.794;-1.066;2023-12-20T00:43:43;2.38;;;0.50;;
35558;SDS011;21661;50.794;-1.066;2023-12-20T00:46:09;2.85;;;0.38;;
35558;SDS011;21661;50.794;-1.066;2023-12-20T00:48:35;2.75;;;0.40;;
35558;SDS011;21661;50.794;-1.066;2023-12-20T00:51:00;1.52;;;0.60;;
35558;SDS011;21661;50.794;-1.066;2023-12-20T00:53:26;1.75;;;0.43;;
35558;SDS011;21661;50.794;-1.066;2023-12-20T00:55:52;1.38;;;0.30;;
35558;SDS011;21661;50.794;-1.066;2023-12-20T00:58:17;2.80;;;0.50;;
35558;SDS011;21661;50.794;-1.066;2023-12-20T01:00:43;2.65;;;0.50;;
35558;SDS011;21661;50.794;-1.066;2023-12-20T01:03:09;2.78;;;0.40;;
35558;SDS011;21661;50.794;-1.066;2023-12-20T01:05:34;2.83;;;0.50;;
35558;SDS011;21661;50.794;-1.066;2023-12-20T01:08:00;2.65;;;0.40;;
35558;SDS011;21661;50.794;-1.066;2023-12-20T01:10:28;2.83;;;0.60;;
35558;SDS011;21661;50.794;-1.066;2023-12-20T01:12:54;2.90;;;0.70;;
35558;SDS011;21661;50.794;-1.066;2023-12-20T01:15:20;2.10;;;0.45;;
35558;SDS011;21661;50.794;-1.066;2023-12-20T01:17:45;2.45;;;0.40;;
35558;SDS011;21661;50.794;-1.066;2023-12-20T01:20:12;2.22;;;0.40;;
35558;SDS011;21661;50.794;-1.066;2023-12-20T01:22:37;4.07;;;0.57;;
35558;SDS011;21661;50.794;-1.066;2023-12-20T01:25:03;2.75;;;0.40;;
35558;SDS011;21661;50.794;-1.066;2023-12-20T01:27:29;2.53;;;0.47;;
35558;SDS011;21661;50.794;-1.066;2023-12-20T01:29:56;2.55;;;0.50;;
35558;SDS011;21661;50.794;-1.066;2023-12-20T01:32:22;2.83;;;0.52;;
35558;SDS011;21661;50.794;-1.066;2023-12-20T01:34:47;2.92;;;0.47;;
35558;SDS011;21661;50.794;-1.066;2023-12-20T01:37:13;2.58;;;0.47;;
35558;SDS011;21661;50.794;-1.066;2023-12-20T01:39:39;2.55;;;0.57;;
35558;SDS011;21661;50.794;-1.066;2023-12-20T01:42:05;2.53;;;0.43;;
35558;SDS011;21661;50.794;-1.066;2023-12-20T01:44:30;3.42;;;0.50;;
35558;SDS011;21661;50.794;-1.066;2023-12-20T01:46:56;3.67;;;0.70;;
35558;SDS011;21661;50.794;-1.066;2023-12-20T01:49:22;4.45;;;0.60;;
35558;SDS011;21661;50.794;-1.066;2023-12-20T01:51:49;3.80;;;0.50;;
35558;SDS011;21661;50.794;-1.066;2023-12-20T01:54:15;1.90;;;0.50;;
35558;SDS011;21661;50.794;-1.066;2023-12-20T01:56:42;3.33;;;0.55;;
35558;SDS011;21661;50.794;-1.066;2023-12-20T01:59:08;2.72;;;0.55;;
35558;SDS011;21661;50.794;-1.066;2023-12-20T02:01:34;4.13;;;0.85;;
35558;SDS011;21661;50.794;-1.066;2023-12-20T02:04:00;2.90;;;0.40;;
35558;SDS011;21661;50.794;-1.066;2023-12-20T02:06:28;4.22;;;0.60;;
35558;SDS011;21661;50.794;-1.066;2023-12-20T02:08:57;5.15;;;0.70;;
35558;SDS011;21661;50.794;-1.066;2023-12-20T02:11:23;4.63;;;0.68;;
35558;SDS011;21661;50.794;-1.066;2023-12-20T02:13:50;3.83;;;0.90;;
35558;SDS011;21661;50.794;-1.066;2023-12-20T02:16:15;3.75;;;0.80;;
35558;SDS011;21661;50.794;-1.066;2023-12-20T02:18:42;3.22;;;0.57;;
35558;SDS011;21661;50.794;-1.066;2023-12-20T02:21:09;4.13;;;0.60;;
35558;SDS011;21661;50.794;-1.066;2023-12-20T02:23:35;3.50;;;0.70;;
35558;SDS011;21661;50.794;-1.066;2023-12-20T02:26:01;5.32;;;0.75;;
35558;SDS011;21661;50.794;-1.066;2023-12-20T02:28:27;3.33;;;0.60;;
35558;SDS011;21661;50.794;-1.066;2023-12-20T02:30:54;5.50;;;0.77;;
35558;SDS011;21661;50.794;-1.066;2023-12-20T02:33:19;4.63;;;0.70;;
35558;SDS011;21661;50.794;-1.066;2023-12-20T02:35:45;3.08;;;0.70;;
35558;SDS011;21661;50.794;-1.066;2023-12-20T02:38:11;3.47;;;0.90;;
35558;SDS011;21661;50.794;-1.066;2023-12-20T02:40:36;3.95;;;0.82;;
35558;SDS011;21661;50.794;-1.066;2023-12-20T02:43:02;3.40;;;0.70;;
35558;SDS011;21661;50.794;-1.066;2023-12-20T02:45:28;4.43;;;0.68;;
35558;SDS011;21661;50.794;-1.066;2023-12-20T02:47:53;7.10;;;1.00;;
35558;SDS011;21661;50.794;-1.066;2023-12-20T02:50:19;3.60;;;1.08;;
35558;SDS011;21661;50.794;-1.066;2023-12-20T02:52:45;3.78;;;0.75;;
35558;SDS011;21661;50.794;-1.066;2023-12-20T02:55:11;5.15;;;0.82;;
35558;SDS011;21661;50.794;-1.066;2023-12-20T02:57:36;4.95;;;0.77;;
35558;SDS011;21661;50.794;-1.066;2023-12-20T03:00:06;3.85;;;0.80;;
35558;SDS011;21661;50.794;-1.066;2023-12-20T03:02:34;4.25;;;0.80;;
35558;SDS011;21661;50.794;-1.066;2023-12-20T03:05:00;4.72;;;0.90;;
35558;SDS011;21661;50.794;-1.066;2023-12-20T03:07:25;5.72;;;0.80;;
35558;SDS011;21661;50.794;-1.066;2023-12-20T03:09:51;3.38;;;0.70;;
35558;SDS011;21661;50.794;-1.066;2023-12-20T03:12:17;3.40;;;0.95;;
35558;SDS011;21661;50.794;-1.066;2023-12-20T03:14:43;4.22;;;1.00;;
35558;SDS011;21661;50.794;-1.066;2023-12-20T03:17:09;3.95;;;0.60;;
35558;SDS011;21661;50.794;-1.066;2023-12-20T03:19:35;6.40;;;0.75;;
35558;SDS011;21661;50.794;-1.066;2023-12-20T03:22:01;3.78;;;0.75;;
35558;SDS011;21661;50.794;-1.066;2023-12-20T03:24:27;3.95;;;0.90;;
35558;SDS011;21661;50.794;-1.066;2023-12-20T03:26:53;3.58;;;0.70;;
35558;SDS011;21661;50.794;-1.066;2023-12-20T03:29:18;5.93;;;0.70;;
35558;SDS011;21661;50.794;-1.066;2023-12-20T03:31:44;4.82;;;0.70;;
35558;SDS011;21661;50.794;-1.066;2023-12-20T03:34:10;3.63;;;0.80;;
35558;SDS011;21661;50.794;-1.066;2023-12-20T03:36:36;4.25;;;0.60;;
35558;SDS011;21661;50.794;-1.066;2023-12-20T03:39:02;4.00;;;0.80;;
35558;SDS011;21661;50.794;-1.066;2023-12-20T03:41:28;4.70;;;0.82;;
35558;SDS011;21661;50.794;-1.066;2023-12-20T03:43:54;4.20;;;0.80;;
35558;SDS011;21661;50.794;-1.066;2023-12-20T03:46:19;6.65;;;0.80;;
35558;SDS011;21661;50.794;-1.066;2023-12-20T03:48:45;4.80;;;0.82;;
35558;SDS011;21661;50.794;-1.066;2023-12-20T03:51:10;2.70;;;0.43;;
35558;SDS011;21661;50.794;-1.066;2023-12-20T03:53:36;3.95;;;1.00;;
35558;SDS011;21661;50.794;-1.066;2023-12-20T03:56:02;4.80;;;0.70;;
35558;SDS011;21661;50.794;-1.066;2023-12-20T03:58:28;5.57;;;0.98;;
35558;SDS011;21661;50.794;-1.066;2023-12-20T04:00:53;3.67;;;0.60;;
35558;SDS011;21661;50.794;-1.066;2023-12-20T04:03:19;5.82;;;1.00;;
35558;SDS011;21661;50.794;-1.066;2023-12-20T04:05:45;2.38;;;0.70;;
35558;SDS011;21661;50.794;-1.066;2023-12-20T04:08:10;3.88;;;0.60;;
35558;SDS011;21661;50.794;-1.066;2023-12-20T04:10:36;3.55;;;0.60;;
35558;SDS011;21661;50.794;-1.066;2023-12-20T04:13:02;3.30;;;0.85;;
35558;SDS011;21661;50.794;-1.066;2023-12-20T04:15:28;4.05;;;0.70;;
35558;SDS011;21661;50.794;-1.066;2023-12-20T04:17:54;4.60;;;0.75;;
35558;SDS011;21661;50.794;-1.066;2023-12-20T04:20:20;5.18;;;0.90;;
35558;SDS011;21661;50.794;-1.066;2023-12-20T04:22:46;3.17;;;0.68;;
35558;SDS011;21661;50.794;-1.066;2023-12-20T04:25:11;3.85;;;0.55;;
35558;SDS011;21661;50.794;-1.066;2023-12-20T04:27:37;5.40;;;0.85;;
35558;SDS011;21661;50.794;-1.066;2023-12-20T04:30:03;3.30;;;0.55;;
35558;SDS011;21661;50.794;-1.066;2023-12-20T04:32:29;5.18;;;0.68;;
35558;SDS011;21661;50.794;-1.066;2023-12-20T04:34:54;4.43;;;0.82;;
35558;SDS011;21661;50.794;-1.066;2023-12-20T04:37:20;3.03;;;0.50;;
35558;SDS011;21661;50.794;-1.066;2023-12-20T04:39:46;4.90;;;0.73;;
35558;SDS011;21661;50.794;-1.066;2023-12-20T04:42:11;4.45;;;0.80;;
35558;SDS011;21661;50.794;-1.066;2023-12-20T04:44:37;5.25;;;0.60;;
35558;SDS011;21661;50.794;-1.066;2023-12-20T04:47:02;3.42;;;0.75;;
35558;SDS011;21661;50.794;-1.066;2023-12-20T04:49:28;3.45;;;0.52;;
35558;SDS011;21661;50.794;-1.066;2023-12-20T04:51:54;5.05;;;0.80;;
35558;SDS011;21661;50.794;-1.066;2023-12-20T04:54:20;4.22;;;0.63;;
35558;SDS011;21661;50.794;-1.066;2023-12-20T04:56:46;3.70;;;0.60;;
35558;SDS011;21661;50.794;-1.066;2023-12-20T04:59:12;3.50;;;0.65;;
35558;SDS011;21661;50.794;-1.066;2023-12-20T05:01:38;3.40;;;0.63;;
35558;SDS011;21661;50.794;-1.066;2023-12-20T05:04:04;3.83;;;0.60;;
35558;SDS011;21661;50.794;-1.066;2023-12-20T05:06:30;2.72;;;0.57;;
35558;SDS011;21661;50.794;-1.066;2023-12-20T05:08:55;5.50;;;0.80;;
35558;SDS011;21661;50.794;-1.066;2023-12-20T05:11:21;3.55;;;0.70;;
35558;SDS011;21661;50.794;-1.066;2023-12-20T05:13:46;3.33;;;0.70;;
35558;SDS011;21661;50.794;-1.066;2023-12-20T05:16:12;3.53;;;0.63;;
35558;SDS011;21661;50.794;-1.066;2023-12-20T05:18:39;3.83;;;0.60;;
35558;SDS011;21661;50.794;-1.066;2023-12-20T05:21:05;3.17;;;0.70;;
35558;SDS011;21661;50.794;-1.066;2023-12-20T05:23:31;4.10;;;0.68;;
35558;SDS011;21661;50.794;-1.066;2023-12-20T05:25:56;3.42;;;0.60;;
35558;SDS011;21661;50.794;-1.066;2023-12-20T05:28:22;2.97;;;0.60;;
35558;SDS011;21661;50.794;-1.066;2023-12-20T05:30:47;3.63;;;0.70;;
35558;SDS011;21661;50.794;-1.066;2023-12-20T05:33:13;2.75;;;0.50;;
35558;SDS011;21661;50.794;-1.066;2023-12-20T05:35:39;5.07;;;0.60;;
35558;SDS011;21661;50.794;-1.066;2023-12-20T05:38:04;5.85;;;0.80;;
35558;SDS011;21661;50.794;-1.066;2023-12-20T05:40:30;3.38;;;0.40;;
35558;SDS011;21661;50.794;-1.066;2023-12-20T05:42:56;4.93;;;0.70;;
35558;SDS011;21661;50.794;-1.066;2023-12-20T05:45:21;3.30;;;0.60;;
35558;SDS011;21661;50.794;-1.066;2023-12-20T05:47:47;5.85;;;0.70;;
35558;SDS011;21661;50.794;-1.066;2023-12-20T05:50:12;2.05;;;0.60;;
35558;SDS011;21661;50.794;-1.066;2023-12-20T05:52:38;4.25;;;0.77;;
35558;SDS011;21661;50.794;-1.066;2023-12-20T05:55:04;4.63;;;0.90;;
35558;SDS011;21661;50.794;-1.066;2023-12-20T05:57:29;3.70;;;0.60;;
35558;SDS011;21661;50.794;-1.066;2023-12-20T05:59:55;4.38;;;0.70;;
35558;SDS011;21661;50.794;-1.066;2023-12-20T06:02:20;3.92;;;0.77;;
35558;SDS011;21661;50.794;-1.066;2023-12-20T06:04:46;5.18;;;0.90;;
35558;SDS011;21661;50.794;-1.066;2023-12-20T06:07:12;3.88;;;0.73;;
35558;SDS011;21661;50.794;-1.066;2023-12-20T06:09:38;4.15;;;0.60;;
35558;SDS011;21661;50.794;-1.066;2023-12-20T06:12:04;4.07;;;0.50;;
35558;SDS011;21661;50.794;-1.066;2023-12-20T06:14:30;4.65;;;0.90;;
35558;SDS011;21661;50.794;-1.066;2023-12-20T06:16:56;3.78;;;0.60;;
35558;SDS011;21661;50.794;-1.066;2023-12-20T06:19:22;3.33;;;0.80;;
35558;SDS011;21661;50.794;-1.066;2023-12-20T06:21:48;5.43;;;0.85;;
35558;SDS011;21661;50.794;-1.066;2023-12-20T06:24:14;3.25;;;0.90;;
35558;SDS011;21661;50.794;-1.066;2023-12-20T06:26:39;4.97;;;0.70;;
35558;SDS011;21661;50.794;-1.066;2023-12-20T06:29:05;3.22;;;0.60;;
35558;SDS011;21661;50.794;-1.066;2023-12-20T06:31:31;4.18;;;0.70;;
35558;SDS011;21661;50.794;-1.066;2023-12-20T06:33:58;5.78;;;0.90;;
35558;SDS011;21661;50.794;-1.066;2023-12-20T06:36:25;3.97;;;0.55;;
35558;SDS011;21661;50.794;-1.066;2023-12-20T06:38:53;3.63;;;0.98;;
35558;SDS011;21661;50.794;-1.066;2023-12-20T06:41:19;2.92;;;0.60;;
35558;SDS011;21661;50.794;-1.066;2023-12-20T06:43:45;4.00;;;0.85;;
35558;SDS011;21661;50.794;-1.066;2023-12-20T06:46:10;4.78;;;0.85;;
35558;SDS011;21661;50.794;-1.066;2023-12-20T06:48:38;4.60;;;0.70;;
35558;SDS011;21661;50.794;-1.066;2023-12-20T06:51:04;3.65;;;0.60;;
35558;SDS011;21661;50.794;-1.066;2023-12-20T06:53:30;4.13;;;0.77;;
35558;SDS011;21661;50.794;-1.066;2023-12-20T06:55:55;3.70;;;0.80;;
35558;SDS011;21661;50.794;-1.066;2023-12-20T06:58:22;3.83;;;0.55;;
35558;SDS011;21661;50.794;-1.066;2023-12-20T07:00:47;3.45;;;0.63;;
35558;SDS011;21661;50.794;-1.066;2023-12-20T07:03:13;4.15;;;0.85;;
35558;SDS011;21661;50.794;-1.066;2023-12-20T07:05:39;4.70;;;0.90;;
35558;SDS011;21661;50.794;-1.066;2023-12-20T07:08:05;5.18;;;0.90;;
35558;SDS011;21661;50.794;-1.066;2023-12-20T07:10:31;5.32;;;1.00;;
35558;SDS011;21661;50.794;-1.066;2023-12-20T07:12:57;3.47;;;0.50;;
35558;SDS011;21661;50.794;-1.066;2023-12-20T07:15:23;4.03;;;0.70;;
35558;SDS011;21661;50.794;-1.066;2023-12-20T07:17:48;4.07;;;0.70;;
35558;SDS011;21661;50.794;-1.066;2023-12-20T07:20:14;3.88;;;0.52;;
35558;SDS011;21661;50.794;-1.066;2023-12-20T07:22:40;5.65;;;0.88;;
35558;SDS011;21661;50.794;-1.066;2023-12-20T07:25:06;2.95;;;0.63;;
35558;SDS011;21661;50.794;-1.066;2023-12-20T07:27:32;3.25;;;0.88;;
35558;SDS011;21661;50.794;-1.066;2023-12-20T07:29:57;3.78;;;0.70;;
35558;SDS011;21661;50.794;-1.066;2023-12-20T07:32:23;3.75;;;0.70;;
35558;SDS011;21661;50.794;-1.066;2023-12-20T07:34:49;3.75;;;0.82;;
35558;SDS011;21661;50.794;-1.066;2023-12-20T07:37:14;4.15;;;0.77;;
35558;SDS011;21661;50.794;-1.066;2023-12-20T07:39:40;4.90;;;0.85;;
35558;SDS011;21661;50.794;-1.066;2023-12-20T07:42:06;3.75;;;0.80;;
35558;SDS011;21661;50.794;-1.066;2023-12-20T07:44:33;4.82;;;0.60;;
35558;SDS011;21661;50.794;-1.066;2023-12-20T07:46:58;5.05;;;0.65;;
35558;SDS011;21661;50.794;-1.066;2023-12-20T07:49:26;5.25;;;1.00;;
35558;SDS011;21661;50.794;-1.066;2023-12-20T07:51:51;2.97;;;0.60;;
35558;SDS011;21661;50.794;-1.066;2023-12-20T07:54:17;4.07;;;0.60;;
35558;SDS011;21661;50.794;-1.066;2023-12-20T07:56:42;3.85;;;0.65;;
35558;SDS011;21661;50.794;-1.066;2023-12-20T07:59:08;3.38;;;0.63;;
35558;SDS011;21661;50.794;-1.066;2023-12-20T08:01:34;4.10;;;0.70;;
35558;SDS011;21661;50.794;-1.066;2023-12-20T08:04:00;4.22;;;0.80;;
35558;SDS011;21661;50.794;-1.066;2023-12-20T08:06:25;3.33;;;0.57;;
35558;SDS011;21661;50.794;-1.066;2023-12-20T08:08:51;4.47;;;0.75;;
35558;SDS011;21661;50.794;-1.066;2023-12-20T08:11:17;4.22;;;0.80;;
35558;SDS011;21661;50.794;-1.066;2023-12-20T08:13:42;4.00;;;0.70;;
35558;SDS011;21661;50.794;-1.066;2023-12-20T08:16:08;3.33;;;0.77;;
35558;SDS011;21661;50.794;-1.066;2023-12-20T08:18:34;5.65;;;0.80;;
35558;SDS011;21661;50.794;-1.066;2023-12-20T08:21:00;3.42;;;0.60;;
35558;SDS011;21661;50.794;-1.066;2023-12-20T08:23:26;3.53;;;0.80;;
35558;SDS011;21661;50.794;-1.066;2023-12-20T08:25:52;3.90;;;0.70;;
35558;SDS011;21661;50.794;-1.066;2023-12-20T08:28:17;3.80;;;0.65;;
35558;SDS011;21661;50.794;-1.066;2023-12-20T08:30:43;3.80;;;0.68;;
35558;SDS011;21661;50.794;-1.066;2023-12-20T08:33:09;3.70;;;0.70;;
35558;SDS011;21661;50.794;-1.066;2023-12-20T08:35:37;3.05;;;0.70;;
35558;SDS011;21661;50.794;-1.066;2023-12-20T08:38:04;3.05;;;1.13;;
35558;SDS011;21661;50.794;-1.066;2023-12-20T08:40:30;3.45;;;0.63;;
35558;SDS011;21661;50.794;-1.066;2023-12-20T08:42:56;5.47;;;0.82;;
35558;SDS011;21661;50.794;-1.066;2023-12-20T08:45:21;3.72;;;0.60;;
35558;SDS011;21661;50.794;-1.066;2023-12-20T08:47:47;3.13;;;0.70;;
35558;SDS011;21661;50.794;-1.066;2023-12-20T08:50:12;2.78;;;0.70;;
35558;SDS011;21661;50.794;-1.066;2023-12-20T08:52:38;4.43;;;0.90;;
35558;SDS011;21661;50.794;-1.066;2023-12-20T08:55:04;2.70;;;0.50;;
35558;SDS011;21661;50.794;-1.066;2023-12-20T08:57:30;3.20;;;0.60;;
35558;SDS011;21661;50.794;-1.066;2023-12-20T08:59:57;3.75;;;0.70;;
35558;SDS011;21661;50.794;-1.066;2023-12-20T09:02:22;2.65;;;0.60;;
35558;SDS011;21661;50.794;-1.066;2023-12-20T09:04:48;3.60;;;0.80;;
35558;SDS011;21661;50.794;-1.066;2023-12-20T09:07:21;3.13;;;0.60;;
35558;SDS011;21661;50.794;-1.066;2023-12-20T09:09:47;2.30;;;0.50;;
35558;SDS011;21661;50.794;-1.066;2023-12-20T09:12:13;3.83;;;0.55;;
35558;SDS011;21661;50.794;-1.066;2023-12-20T09:14:39;2.60;;;0.43;;
35558;SDS011;21661;50.794;-1.066;2023-12-20T09:17:04;3.08;;;0.65;;
35558;SDS011;21661;50.794;-1.066;2023-12-20T09:19:31;2.83;;;0.45;;
35558;SDS011;21661;50.794;-1.066;2023-12-20T09:21:57;2.70;;;0.43;;
35558;SDS011;21661;50.794;-1.066;2023-12-20T09:24:22;3.35;;;0.60;;
35558;SDS011;21661;50.794;-1.066;2023-12-20T09:26:48;2.38;;;0.60;;
35558;SDS011;21661;50.794;-1.066;2023-12-20T09:29:13;2.78;;;0.52;;
35558;SDS011;21661;50.794;-1.066;2023-12-20T09:31:40;2.17;;;0.40;;
35558;SDS011;21661;50.794;-1.066;2023-12-20T09:34:08;2.00;;;0.40;;
35558;SDS011;21661;50.794;-1.066;2023-12-20T09:36:34;4.32;;;0.95;;
35558;SDS011;21661;50.794;-1.066;2023-12-20T09:39:01;3.40;;;0.60;;
35558;SDS011;21661;50.794;-1.066;2023-12-20T09:41:28;3.97;;;0.65;;
35558;SDS011;21661;50.794;-1.066;2023-12-20T09:43:57;2.47;;;0.60;;
35558;SDS011;21661;50.794;-1.066;2023-12-20T09:46:26;2.78;;;0.50;;
35558;SDS011;21661;50.794;-1.066;2023-12-20T09:48:58;2.20;;;0.65;;
35558;SDS011;21661;50.794;-1.066;2023-12-20T09:51:25;3.08;;;0.55;;
35558;SDS011;21661;50.794;-1.066;2023-12-20T09:53:54;4.35;;;0.95;;
35558;SDS011;21661;50.794;-1.066;2023-12-20T09:56:21;2.55;;;0.50;;
35558;SDS011;21661;50.794;-1.066;2023-12-20T09:58:47;4.68;;;0.60;;
35558;SDS011;21661;50.794;-1.066;2023-12-20T10:01:13;3.00;;;0.50;;
35558;SDS011;21661;50.794;-1.066;2023-12-20T10:03:41;2.72;;;0.57;;
35558;SDS011;21661;50.794;-1.066;2023-12-20T10:06:07;1.90;;;0.38;;
35558;SDS011;21661;50.794;-1.066;2023-12-20T10:08:33;3.50;;;0.50;;
35558;SDS011;21661;50.794;-1.066;2023-12-20T10:11:00;3.33;;;0.60;;
35558;SDS011;21661;50.794;-1.066;2023-12-20T10:13:27;2.42;;;0.40;;
35558;SDS011;21661;50.794;-1.066;2023-12-20T10:15:54;3.70;;;0.60;;
35558;SDS011;21661;50.794;-1.066;2023-12-20T10:18:20;2.83;;;0.60;;
35558;SDS011;21661;50.794;-1.066;2023-12-20T10:20:46;3.95;;;0.63;;
35558;SDS011;21661;50.794;-1.066;2023-12-20T10:23:12;3.33;;;0.50;;
35558;SDS011;21661;50.794;-1.066;2023-12-20T10:25:39;3.03;;;0.77;;
35558;SDS011;21661;50.794;-1.066;2023-12-20T10:28:13;2.78;;;0.60;;
35558;SDS011;21661;50.794;-1.066;2023-12-20T10:30:43;2.05;;;0.50;;
35558;SDS011;21661;50.794;-1.066;2023-12-20T10:33:09;3.90;;;0.57;;
35558;SDS011;21661;50.794;-1.066;2023-12-20T10:35:35;2.55;;;0.50;;
35558;SDS011;21661;50.794;-1.066;2023-12-20T10:38:05;3.88;;;0.50;;
35558;SDS011;21661;50.794;-1.066;2023-12-20T10:40:35;2.35;;;0.50;;
35558;SDS011;21661;50.794;-1.066;2023-12-20T10:43:04;2.30;;;0.40;;
35558;SDS011;21661;50.794;-1.066;2023-12-20T10:45:30;1.88;;;0.47;;
35558;SDS011;21661;50.794;-1.066;2023-12-20T10:47:56;3.25;;;0.60;;
35558;SDS011;21661;50.794;-1.066;2023-12-20T10:50:26;2.75;;;0.40;;
35558;SDS011;21661;50.794;-1.066;2023-12-20T10:52:54;1.38;;;0.32;;
35558;SDS011;21661;50.794;-1.066;2023-12-20T10:55:23;1.85;;;0.30;;
35558;SDS011;21661;50.794;-1.066;2023-12-20T10:58:00;1.48;;;0.40;;
35558;SDS011;21661;50.794;-1.066;2023-12-20T11:00:27;2.25;;;0.52;;
35558;SDS011;21661;50.794;-1.066;2023-12-20T11:02:55;3.20;;;0.50;;
35558;SDS011;21661;50.794;-1.066;2023-12-20T11:05:38;1.73;;;0.25;;
35558;SDS011;21661;50.794;-1.066;2023-12-20T11:08:12;2.33;;;0.40;;
35558;SDS011;21661;50.794;-1.066;2023-12-20T11:11:09;2.33;;;0.50;;
35558;SDS011;21661;50.794;-1.066;2023-12-20T11:13:48;1.55;;;0.40;;
35558;SDS011;21661;50.794;-1.066;2023-12-20T11:16:22;2.80;;;0.38;;
35558;SDS011;21661;50.794;-1.066;2023-12-20T11:18:50;3.65;;;0.40;;
35558;SDS011;21661;50.794;-1.066;2023-12-20T11:21:16;1.58;;;0.40;;
35558;SDS011;21661;50.794;-1.066;2023-12-20T11:23:42;2.10;;;0.40;;
35558;SDS011;21661;50.794;-1.066;2023-12-20T11:26:08;1.70;;;0.30;;
35558;SDS011;21661;50.794;-1.066;2023-12-20T11:28:33;1.67;;;0.45;;
35558;SDS011;21661;50.794;-1.066;2023-12-20T11:31:00;3.55;;;0.40;;
35558;SDS011;21661;50.794;-1.066;2023-12-20T11:35:56;1.70;;;0.30;;
35558;SDS011;21661;50.794;-1.066;2023-12-20T11:38:24;1.77;;;0.30;;
35558;SDS011;21661;50.794;-1.066;2023-12-20T11:40:50;2.17;;;0.40;;
35558;SDS011;21661;50.794;-1.066;2023-12-20T11:43:31;1.33;;;0.30;;
35558;SDS011;21661;50.794;-1.066;2023-12-20T11:48:30;2.85;;;0.50;;
35558;SDS011;21661;50.794;-1.066;2023-12-20T11:50:59;1.55;;;0.40;;
35558;SDS011;21661;50.794;-1.066;2023-12-20T11:53:25;1.27;;;0.22;;
35558;SDS011;21661;50.794;-1.066;2023-12-20T11:55:51;1.90;;;0.50;;
35558;SDS011;21661;50.794;-1.066;2023-12-20T11:58:17;1.52;;;0.30;;
35558;SDS011;21661;50.794;-1.066;2023-12-20T12:00:43;1.95;;;0.20;;
35558;SDS011;21661;50.794;-1.066;2023-12-20T12:03:09;1.77;;;0.32;;
35558;SDS011;21661;50.794;-1.066;2023-12-20T12:05:35;1.25;;;0.20;;
35558;SDS011;21661;50.794;-1.066;2023-12-20T12:08:03;2.50;;;0.30;;
35558;SDS011;21661;50.794;-1.066;2023-12-20T12:10:29;1.80;;;0.20;;
35558;SDS011;21661;50.794;-1.066;2023-12-20T12:12:55;1.55;;;0.30;;
35558;SDS011;21661;50.794;-1.066;2023-12-20T12:15:21;2.10;;;0.60;;
35558;SDS011;21661;50.794;-1.066;2023-12-20T12:17:56;2.20;;;0.40;;
35558;SDS011;21661;50.794;-1.066;2023-12-20T12:20:23;1.83;;;0.20;;
35558;SDS011;21661;50.794;-1.066;2023-12-20T12:23:02;2.35;;;0.22;;
35558;SDS011;21661;50.794;-1.066;2023-12-20T12:25:29;1.52;;;0.20;;
35558;SDS011;21661;50.794;-1.066;2023-12-20T12:27:56;1.50;;;0.20;;
35558;SDS011;21661;50.794;-1.066;2023-12-20T12:30:23;1.55;;;0.28;;
35558;SDS011;21661;50.794;-1.066;2023-12-20T12:32:50;2.28;;;0.40;;
35558;SDS011;21661;50.794;-1.066;2023-12-20T12:35:17;1.92;;;0.40;;
35558;SDS011;21661;50.794;-1.066;2023-12-20T12:37:44;2.45;;;0.50;;
35558;SDS011;21661;50.794;-1.066;2023-12-20T12:40:10;3.03;;;0.32;;
35558;SDS011;21661;50.794;-1.066;2023-12-20T12:42:37;1.35;;;0.30;;
35558;SDS011;21661;50.794;-1.066;2023-12-20T12:45:03;2.03;;;0.32;;
35558;SDS011;21661;50.794;-1.066;2023-12-20T12:47:29;1.50;;;0.20;;
35558;SDS011;21661;50.794;-1.066;2023-12-20T12:49:55;2.25;;;0.35;;
35558;SDS011;21661;50.794;-1.066;2023-12-20T12:52:21;1.98;;;0.40;;
35558;SDS011;21661;50.794;-1.066;2023-12-20T12:54:47;2.40;;;0.30;;
35558;SDS011;21661;50.794;-1.066;2023-12-20T12:57:13;2.38;;;0.50;;
35558;SDS011;21661;50.794;-1.066;2023-12-20T12:59:40;2.47;;;0.50;;
35558;SDS011;21661;50.794;-1.066;2023-12-20T13:02:07;2.63;;;0.38;;
35558;SDS011;21661;50.794;-1.066;2023-12-20T13:04:33;2.00;;;0.30;;
35558;SDS011;21661;50.794;-1.066;2023-12-20T13:06:58;2.10;;;0.30;;
35558;SDS011;21661;50.794;-1.066;2023-12-20T13:09:24;3.10;;;0.40;;
35558;SDS011;21661;50.794;-1.066;2023-12-20T13:11:50;1.75;;;0.30;;
35558;SDS011;21661;50.794;-1.066;2023-12-20T13:14:16;2.47;;;0.25;;
35558;SDS011;21661;50.794;-1.066;2023-12-20T13:16:41;2.05;;;0.47;;
35558;SDS011;21661;50.794;-1.066;2023-12-20T13:19:07;2.22;;;0.40;;
35558;SDS011;21661;50.794;-1.066;2023-12-20T13:21:34;2.20;;;0.50;;
35558;SDS011;21661;50.794;-1.066;2023-12-20T13:24:00;1.17;;;0.25;;
35558;SDS011;21661;50.794;-1.066;2023-12-20T13:26:26;0.90;;;0.28;;
35558;SDS011;21661;50.794;-1.066;2023-12-20T13:28:52;1.75;;;0.25;;
35558;SDS011;21661;50.794;-1.066;2023-12-20T13:31:19;1.02;;;0.20;;
35558;SDS011;21661;50.794;-1.066;2023-12-20T13:33:45;1.92;;;0.20;;
35558;SDS011;21661;50.794;-1.066;2023-12-20T13:36:11;2.13;;;0.32;;
35558;SDS011;21661;50.794;-1.066;2023-12-20T13:38:37;1.10;;;0.20;;
35558;SDS011;21661;50.794;-1.066;2023-12-20T13:41:02;1.23;;;0.30;;
35558;SDS011;21661;50.794;-1.066;2023-12-20T13:43:29;1.55;;;0.30;;
35558;SDS011;21661;50.794;-1.066;2023-12-20T13:45:56;1.48;;;0.20;;
35558;SDS011;21661;50.794;-1.066;2023-12-20T13:48:22;1.10;;;0.25;;
35558;SDS011;21661;50.794;-1.066;2023-12-20T13:50:49;1.85;;;0.32;;
35558;SDS011;21661;50.794;-1.066;2023-12-20T13:53:14;1.67;;;0.35;;
35558;SDS011;21661;50.794;-1.066;2023-12-20T13:55:40;0.95;;;0.40;;
35558;SDS011;21661;50.794;-1.066;2023-12-20T13:58:06;1.15;;;0.50;;
35558;SDS011;21661;50.794;-1.066;2023-12-20T14:00:31;1.23;;;0.30;;
35558;SDS011;21661;50.794;-1.066;2023-12-20T14:02:57;1.02;;;0.32;;
35558;SDS011;21661;50.794;-1.066;2023-12-20T14:05:23;1.38;;;0.40;;
35558;SDS011;21661;50.794;-1.066;2023-12-20T14:07:49;1.98;;;0.35;;
35558;SDS011;21661;50.794;-1.066;2023-12-20T14:10:15;2.63;;;0.40;;
35558;SDS011;21661;50.794;-1.066;2023-12-20T14:12:41;2.60;;;0.68;;
35558;SDS011;21661;50.794;-1.066;2023-12-20T14:15:07;2.08;;;0.30;;
35558;SDS011;21661;50.794;-1.066;2023-12-20T14:17:36;1.63;;;0.60;;
35558;SDS011;21661;50.794;-1.066;2023-12-20T14:20:05;1.60;;;0.38;;
35558;SDS011;21661;50.794;-1.066;2023-12-20T14:22:35;2.05;;;0.35;;
35558;SDS011;21661;50.794;-1.066;2023-12-20T14:25:01;0.75;;;0.30;;
35558;SDS011;21661;50.794;-1.066;2023-12-20T14:27:27;1.40;;;0.40;;
35558;SDS011;21661;50.794;-1.066;2023-12-20T14:29:53;6.10;;;0.57;;
35558;SDS011;21661;50.794;-1.066;2023-12-20T14:32:19;1.42;;;0.52;;
35558;SDS011;21661;50.794;-1.066;2023-12-20T14:34:45;1.60;;;0.22;;